ADDS METAR Data INFO
IDs: Format: Raw Decoded Include TAF

Data at: 2208 UTC 24 Jun 2018

KGAI 242156Z AUTO 23008KT 10SM CLR 28/21 A2985 RMK AO2 LTG DSNT N SLP129 T02830206
KGAI 242056Z AUTO VRB05KT 10SM CLR 28/21 A2986 RMK AO2 RAE10 SLP132 P0000 60000 T02830211 58009
KGAI 241956Z AUTO 29009KT 10SM -RA FEW032 25/21 A2989 RMK AO2 RAB21 SLP143 P0000 T02500211
KGAI 241856Z AUTO 27005KT 10SM SCT120 28/20 A2988 RMK AO2 LTG DSNT W SLP138 T02780200
KGAI 241756Z AUTO 25006KT 10SM FEW055 SCT120 28/21 A2989 RMK AO2 SLP141 T02830206 10294 20222 58003
KGAI 241656Z AUTO 28006KT 10SM BKN043 BKN050 28/21 A2990 RMK AO2 SLP144 T02830206
KGAI 241556Z AUTO 26006KT 10SM FEW041 29/20 A2989 RMK AO2 SLP142 T02940200
KGAI 241456Z AUTO 30006KT 10SM CLR 28/21 A2990 RMK AO2 SLP143 T02780206 51001
KGAI 241356Z AUTO 28007KT 10SM CLR 27/21 A2989 RMK AO2 SLP139 T02720206
KGAI 241256Z AUTO 26005KT 10SM CLR 25/21 A2990 RMK AO2 SLP145 T02500206
KGAI 241156Z AUTO 00000KT 10SM CLR 22/21 A2989 RMK AO2 SLP142 70001 T02220206 10222 20183 51011
KGAI 241056Z AUTO 00000KT 6SM BR CLR 19/19 A2988 RMK AO2 SLP140 T01940189
KGAI 240943Z AUTO 00000KT 3SM BR CLR 18/18 A2986 RMK AO2
KGAI 240935Z AUTO 00000KT 1 3/4SM BR CLR 18/18 A2986 RMK AO2
KGAI 240902Z AUTO 00000KT 4SM BR CLR 19/18 A2986 RMK AO2
KGAI 240856Z AUTO 00000KT 1 1/4SM BR CLR 19/18 A2986 RMK AO2 VIS 1/2V5 SLP132 T01890183 50001
KGAI 240850Z AUTO 00000KT 1 3/4SM BR CLR 19/18 A2986 RMK AO2 VIS 3/4V5
KGAI 240842Z AUTO 00000KT 6SM BR CLR 19/18 A2985 RMK AO2
KGAI 240830Z AUTO 00000KT 1 3/4SM BR FEW085 19/19 A2985 RMK AO2 VIS 1/2V4
KGAI 240756Z AUTO 00000KT 5SM BR FEW050 19/19 A2986 RMK AO2 SLP132 T01940189
KGAI 240656Z AUTO 00000KT 9SM BKN060 OVC075 20/19 A2986 RMK AO2 SLP133 T02000194
KGAI 240556Z AUTO 00000KT 7SM CLR 19/19 A2985 RMK AO2 SLP132 T01940189 10261 20189 58000
KGAI 240456Z AUTO 00000KT 3SM BR CLR 19/19 A2986 RMK AO2 SLP133 T01940194 402720172
KGAI 240356Z AUTO 00000KT 10SM FEW070 21/20 A2986 RMK AO2 SLP133 T02060200
KGAI 240256Z AUTO 00000KT 10SM FEW042 22/21 A2985 RMK AO2 SLP132 T02170206 53012
KGAI 240156Z AUTO 26003KT 10SM FEW042 SCT120 23/21 A2983 RMK AO2 SLP125 T02280206
KGAI 240056Z AUTO 20005KT 10SM FEW065 BKN090 24/21 A2982 RMK AO2 SLP121 T02440211
KGAI 232356Z AUTO 18006KT 10SM BKN100 26/21 A2982 RMK AO2 SLP119 60000 T02560211 10272 20233 53004
KGAI 232256Z AUTO 16005KT 10SM CLR 27/21 A2980 RMK AO2 RAE06 SLP113 P0000 T02670206
KGAI 232156Z AUTO 22004KT 10SM -RA FEW024 SCT065 BKN100 26/20 A2981 RMK AO2 LTG DSNT SW RAB54 SLP117 P0000 T02560200
KGAI 232056Z AUTO 19003KT 10SM FEW021 26/21 A2981 RMK AO2 SLP114 T02610206 55005
KGAI 232047Z AUTO 16005KT 10SM SCT019 27/21 A2980 RMK AO2
KGAI 231956Z AUTO 20004KT 10SM FEW018 BKN029 BKN035 26/21 A2982 RMK AO2 SLP118 T02610211
KGAI 231922Z AUTO 26007KT 10SM SCT017 BKN026 OVC031 26/21 A2982 RMK AO2
KGAI 231856Z AUTO VRB04KT 10SM BKN012 OVC018 24/21 A2982 RMK AO2 SLP120 T02440211
KGAI 231825Z AUTO 17006KT 10SM SCT010 BKN017 OVC022 24/21 A2983 RMK AO2
KGAI 231756Z AUTO 13003KT 10SM OVC008 23/21 A2984 RMK AO2 CIG 006V012 SLP127 60001 T02280211 10233 20183 58008
KGAI 231656Z AUTO 15005KT 10SM OVC006 22/21 A2985 RMK AO2 SLP132 T02170206
KGAI 231556Z AUTO 00000KT 9SM OVC006 21/21 A2985 RMK AO2 SLP133 T02110206
KGAI 231456Z AUTO 00000KT 4SM BR OVC004 21/20 A2986 RMK AO2 SLP135 P0001 60001 T02060200 58000
KGAI 231446Z AUTO 00000KT 2SM BR OVC004 21/20 A2986 RMK AO2 P0001
KGAI 231356Z AUTO 00000KT 1 1/4SM BR OVC004 20/19 A2987 RMK AO2 SLP138 T02000194
KGAI 231338Z AUTO 00000KT 1 3/4SM BR OVC004 20/19 A2987 RMK AO2 LTG DSNT NW
KGAI 231315Z AUTO 00000KT 2 1/2SM BR OVC002 19/19 A2986 RMK AO2 LTG DSNT NW
KGAI 231256Z AUTO 00000KT 3SM BR OVC002 19/19 A2986 RMK AO2 RAE04 SLP136 P0000 T01940189
KGAI 231254Z AUTO 00000KT 3SM BR OVC002 19/19 A2986 RMK AO2 RAE04 P0000
KGAI 231229Z AUTO 11003KT 1 1/4SM BR OVC002 19/19 A2986 RMK AO2 RAE04 P0000
KGAI 231212Z AUTO 00000KT 1SM BR OVC002 19/19 A2986 RMK AO2 RAE04 P0000
KGAI 231156Z AUTO 00000KT 3/4SM -RA BR OVC002 18/18 A2986 RMK AO2 RAB51 SLP137 P0000 60003 70031 T01830183 10189 20172 53008
KGAI 231138Z AUTO 00000KT 1/2SM FG OVC002 18/18 A2986 RMK AO2
KGAI 231116Z AUTO 00000KT 3/4SM BR OVC002 18/18 A2985 RMK AO2
KGAI 231056Z AUTO 00000KT 1SM BR OVC002 18/18 A2984 RMK AO2 SLP131 T01830178